Disclaimer

Please do not use the information listed here in-flight or in-navigation, as they are not provided to us by the airports but are provided by volunteers, so they might be outdated.

Search


Regions


Airport information page

Radio informations:
BEZIERS TWR - 120.175 MHz
BEZIERS ATIS - 127.525 MHz

Airport informations:
Latitude: 43° 19' 24.68" N
Longitude: 003° 21' 14.05" E
Elevation: 56 feet - 17 meters
Operating hours: Remarks
Operating agency: Civil government, landing fees and diplomatic clearance may be required
Timezone: UTC+1(+2DT) - Last Sunday in March to last Sunday in October
Fuel: Jet A1, without icing nhibitor.

100/130 MIL Spec, low lead, aviation gasoline (BLUE)

Runway information:
10/28 - 5971 x 98 feet< - >1820 x 30 meters

Recent METARs:
LFMU 210300Z AUTO 27010KT 9999 BKN022 OVC040 06/04 Q1005 NOSIG
LFMU 210330Z AUTO 27009KT 9999 FEW020 OVC039 06/04 Q1006 NOSIG
LFMU 210400Z AUTO 27007KT 9999 FEW020 SCT027 OVC040 06/04 Q1006 NOSIG

Airport on the map: